createdAt,value
2022-09-11T00:02:50.293Z,100438.81
2022-09-11T00:09:36.736Z,100442.47
2022-09-11T00:16:29.434Z,100377.81
2022-09-11T00:23:17.652Z,100436.06
2022-09-11T00:30:03.764Z,100443.25
2022-09-11T00:36:52.312Z,100444.41
2022-09-11T00:44:03.027Z,100439.66
2022-09-11T00:50:49.777Z,100452.50
2022-09-11T00:57:45.477Z,100451.97
2022-09-11T01:04:32.548Z,100460.41
2022-09-11T01:11:34.400Z,100462.31
2022-09-11T01:18:32.509Z,100467.16
2022-09-11T01:25:30.203Z,100473.19
2022-09-11T01:32:24.922Z,100475.97
2022-09-11T01:39:10.998Z,100484.03
2022-09-11T01:45:59.390Z,100437.63
2022-09-11T01:52:53.475Z,100471.28
2022-09-11T01:59:44.070Z,100476.13
2022-09-11T02:06:36.478Z,100478.53
2022-09-11T02:13:32.876Z,100475.47
2022-09-11T02:20:22.318Z,100473.25
2022-09-11T02:27:12.611Z,100486.47
2022-09-11T02:34:00.844Z,100491.31
2022-09-11T02:40:56.169Z,100496.91
2022-09-11T03:01:32.373Z,100526.25
2022-09-11T03:08:20.386Z,100531.28
2022-09-11T03:15:07.081Z,100529.47
2022-09-11T03:21:55.736Z,100537.28
2022-09-11T03:28:41.301Z,100551.66
2022-09-11T03:35:27.416Z,100554.00
2022-09-11T03:42:15.927Z,100554.34
2022-09-11T03:49:02.133Z,100520.78
2022-09-11T03:55:50.103Z,100567.72
2022-09-11T04:02:38.443Z,100534.16
2022-09-11T04:09:24.487Z,100563.63
2022-09-11T04:16:14.852Z,100581.38
2022-09-11T04:23:05.696Z,100584.97
2022-09-11T04:29:51.861Z,100589.91
2022-09-11T04:36:37.469Z,100590.38
2022-09-11T04:43:27.610Z,100585.16
2022-09-11T04:50:16.478Z,100591.81
2022-09-11T04:57:02.284Z,100612.22
2022-09-11T05:03:50.815Z,100615.56
2022-09-11T05:10:42.306Z,100618.28
2022-09-11T05:17:28.516Z,100616.66
2022-09-11T05:24:16.580Z,100634.00
2022-09-11T05:31:03.236Z,100637.31
2022-09-11T05:37:49.120Z,100612.97
2022-09-11T05:44:37.269Z,100655.09
2022-09-11T05:51:25.259Z,100666.34
2022-09-11T05:58:11.337Z,100513.75
2022-09-11T06:04:59.412Z,100680.59
2022-09-11T06:11:44.911Z,100685.53
2022-09-11T06:18:30.713Z,100694.72
2022-09-11T06:25:18.953Z,100692.72
2022-09-11T06:32:04.645Z,100704.75
2022-09-11T06:38:56.995Z,100703.78
2022-09-11T06:45:48.389Z,100706.47
2022-09-11T06:52:37.696Z,100708.63
2022-09-11T06:59:44.906Z,100717.97
2022-09-11T07:06:35.243Z,100681.41
2022-09-11T07:13:21.044Z,100710.34
2022-09-11T07:20:07.682Z,100689.47
2022-09-11T07:26:56.095Z,100715.50
2022-09-11T07:33:49.944Z,100720.78
2022-09-11T07:40:35.451Z,100736.75
2022-09-11T07:47:24.085Z,100741.03
2022-09-11T07:54:13.056Z,100742.50
2022-09-11T08:01:02.533Z,100743.19
2022-09-11T08:07:51.139Z,100737.69
2022-09-11T08:14:38.095Z,100753.94
2022-09-11T08:21:29.269Z,100751.94
2022-09-11T08:28:18.044Z,100750.97
2022-09-11T08:35:03.597Z,100757.59
2022-09-11T08:41:53.722Z,100761.47
2022-09-11T08:48:55.444Z,100761.22
2022-09-11T08:55:46.255Z,100609.25
2022-09-11T09:02:52.813Z,100761.97
2022-09-11T09:09:50.976Z,100770.97
2022-09-11T09:16:51.844Z,100775.75
2022-09-11T09:23:45.019Z,100769.72
2022-09-11T09:30:51.648Z,100777.25
2022-09-11T09:37:37.405Z,100783.38
2022-09-11T09:44:49.428Z,100783.91
2022-09-11T09:51:37.521Z,100781.91
2022-09-11T09:58:26.084Z,100779.47
2022-09-11T10:05:22.286Z,100782.06
2022-09-11T10:12:18.112Z,100740.91
2022-09-11T10:19:03.450Z,100780.09
2022-09-11T10:25:52.307Z,100785.25
2022-09-11T10:32:45.409Z,100710.94
2022-09-11T10:39:34.757Z,100758.16
2022-09-11T10:46:39.981Z,100763.78
2022-09-11T10:53:29.479Z,100770.00
2022-09-11T11:00:21.598Z,100767.00
2022-09-11T11:07:22.710Z,100761.97
2022-09-11T11:14:44.075Z,100771.78
2022-09-11T11:21:44.677Z,100761.97
2022-09-11T11:28:58.599Z,100769.22
2022-09-11T11:35:59.621Z,100764.53
2022-09-11T11:42:55.365Z,100763.06
2022-09-11T11:49:57.953Z,100775.50
2022-09-11T11:56:52.694Z,100725.47
2022-09-11T12:03:43.290Z,100773.19
2022-09-11T12:10:36.959Z,100758.31
2022-09-11T12:17:30.340Z,100768.41
2022-09-11T12:24:22.276Z,100726.16
2022-09-11T12:31:11.419Z,100771.50
2022-09-11T12:38:13.360Z,100752.53
2022-09-11T12:45:04.769Z,100769.13
2022-09-11T12:51:56.788Z,100764.78
2022-09-11T12:58:48.220Z,100723.34
2022-09-11T13:05:38.168Z,100748.59
2022-09-11T13:12:53.875Z,100737.84
2022-09-11T13:19:42.557Z,100729.41
2022-09-11T13:26:32.713Z,100648.91
2022-09-11T13:33:27.900Z,100727.25
2022-09-11T13:40:25.629Z,100718.41
2022-09-11T13:47:22.201Z,100716.00
2022-09-11T13:54:14.461Z,100710.88
2022-09-11T14:01:14.304Z,100697.69
2022-09-11T14:08:07.428Z,100701.81
2022-09-11T14:14:57.618Z,100700.19
2022-09-11T14:21:48.799Z,100691.72
2022-09-11T14:28:43.978Z,100682.84
2022-09-11T14:35:32.556Z,100683.72
2022-09-11T14:42:24.633Z,100673.75
2022-09-11T14:49:12.856Z,100676.22
2022-09-11T14:55:59.757Z,100667.81
2022-09-11T15:02:48.463Z,100657.44
2022-09-11T15:09:33.897Z,100663.88
2022-09-11T15:16:19.261Z,100657.88
2022-09-11T15:23:07.316Z,100645.09
2022-09-11T15:29:52.677Z,100648.25
2022-09-11T15:36:38.883Z,100639.03
2022-09-11T15:43:27.461Z,100631.00
2022-09-11T15:50:18.211Z,100628.22
2022-09-11T15:57:03.741Z,100631.03
2022-09-11T16:03:53.299Z,100614.97
2022-09-11T16:10:40.860Z,100624.22
2022-09-11T16:17:31.108Z,100631.44
2022-09-11T16:24:20.165Z,100613.78
2022-09-11T16:31:07.677Z,100550.25
2022-09-11T16:37:53.067Z,100631.44
2022-09-11T16:44:41.025Z,100621.78
2022-09-11T16:51:28.139Z,100616.97
2022-09-11T16:58:13.548Z,100628.22
2022-09-11T17:05:01.530Z,100615.38
2022-09-11T17:11:48.173Z,100627.03
2022-09-11T17:18:33.772Z,100593.19
2022-09-11T17:25:22.015Z,100616.56
2022-09-11T17:39:13.005Z,100621.34
2022-09-11T17:46:07.754Z,100624.16
2022-09-11T17:52:54.192Z,100628.09
2022-09-11T17:59:39.614Z,100636.06
2022-09-11T18:06:33.996Z,100615.94
2022-09-11T18:13:22.130Z,100641.19
2022-09-11T18:20:09.766Z,100630.28
2022-09-11T18:27:00.898Z,100628.66
2022-09-11T18:33:47.139Z,100643.06
2022-09-11T18:40:32.546Z,100646.22
2022-09-11T18:47:20.803Z,100642.59
2022-09-11T18:54:17.745Z,100613.91
2022-09-11T19:01:05.552Z,100630.31
2022-09-11T19:07:52.195Z,100651.19
2022-09-11T19:14:40.792Z,100649.47
2022-09-11T19:21:27.601Z,100650.97
2022-09-11T19:28:13.166Z,100666.53
2022-09-11T19:35:02.727Z,100654.41
2022-09-11T19:41:48.109Z,100649.88
2022-09-11T19:48:33.692Z,100657.41
2022-09-11T19:55:21.696Z,100653.50
2022-09-11T20:02:07.425Z,100650.13
2022-09-11T20:09:03.115Z,100662.34
2022-09-11T20:16:06.387Z,100666.72
2022-09-11T20:22:51.738Z,100660.25
2022-09-11T20:29:40.018Z,100670.53
2022-09-11T20:36:30.180Z,100594.97
2022-09-11T20:43:15.605Z,100619.38
2022-09-11T20:50:00.974Z,100666.81
2022-09-11T20:56:48.964Z,100662.94
2022-09-11T21:03:35.169Z,100659.53
2022-09-11T21:10:20.745Z,100602.03
2022-09-11T21:17:09.028Z,100648.78
2022-09-11T21:23:57.682Z,100656.09
2022-09-11T21:30:43.081Z,100659.53
2022-09-11T21:37:31.095Z,100650.56
2022-09-11T21:44:16.916Z,100518.19
2022-09-11T21:51:09.797Z,100626.97
2022-09-11T21:57:57.962Z,100644.34
2022-09-11T22:04:43.613Z,100585.16
2022-09-11T22:11:29.164Z,100642.31
2022-09-11T22:18:18.483Z,100591.13
2022-09-11T22:25:03.926Z,100648.25
2022-09-11T22:31:49.333Z,100641.13
2022-09-11T22:38:37.381Z,100625.91
2022-09-11T22:45:22.749Z,100640.66
2022-09-11T22:52:08.440Z,100617.19
2022-09-11T22:58:57.045Z,100630.22
2022-09-11T23:05:54.965Z,100648.47
2022-09-11T23:12:40.349Z,100643.31
2022-09-11T23:19:28.736Z,100612.59
2022-09-11T23:26:15.988Z,100625.00
2022-09-11T23:33:01.383Z,100632.81
2022-09-11T23:39:49.757Z,100627.22
2022-09-11T23:46:35.368Z,100623.28
2022-09-11T23:53:20.815Z,100619.09
